KCEU

Oconee County Regional Airport

Clemson, South Carolina, USA
METAR KCEU 190554Z AUTO 09003KT 10SM OVC007 09/08 A3009 RMK AO2 SLP187 T00890078 10117 20089 58003
Observed Flight Rules
Jan-19 @ 05:54 UTC (28 minutes ago) Instrument Flight Rules
Wind Visibility Clouds
90° at 3 knots 10 miles
  • Overcast at 700' AGL
Temperatures Readings
Current 9°C / 48°F
Dewpoint 8°C / 46°F
Humidity 94%
Altimeter 30.09" Hg
Pressure 1018.7 hPa
Elevation 268
METAR KCEU 190554Z AUTO 09003KT 10SM OVC007 09/08 A3009 RMK AO2 SLP187 T00890078 10117 20089 58003
Observed Flight Rules
Jan-19 @ 05:54 UTC
(28 minutes ago)
IFR
Wind Visibility
90° at 3 knots 10 miles
Clouds
  • Overcast at 700' AGL
Temperature Dewpoint
9°C / 48°F 8°C / 46°F
Humidity Altimeter Pressure
94% 30.09" Hg 1018.7 hPa